Flugwetter

[source: ADDS]
METAR
LOWL 260250Z AUTO 08006KT 9999 FEW015 SCT030 BKN032 M12/M15 Q1023 =
TAF
TAF LOWL 252315Z 2600/2624 09007KT 9999 SCT045 TXM06/2615Z TNM11/2606Z TEMPO 2600/2624 04004KT FEW035 BKN045 =